sensor_id;sensor_type;location;lat;lon;timestamp;P1;durP1;ratioP1;P2;durP2;ratioP2
82292;SDS011;71892;14.836;105.234;2024-03-22T00:02:09;22.38;;;12.15;;
82292;SDS011;71892;14.836;105.234;2024-03-22T00:04:36;26.42;;;13.45;;
82292;SDS011;71892;14.836;105.234;2024-03-22T00:07:03;20.52;;;12.15;;
82292;SDS011;71892;14.836;105.234;2024-03-22T00:09:30;20.90;;;11.30;;
82292;SDS011;71892;14.836;105.234;2024-03-22T00:11:56;17.75;;;11.93;;
82292;SDS011;71892;14.836;105.234;2024-03-22T00:14:23;21.67;;;12.15;;
82292;SDS011;71892;14.836;105.234;2024-03-22T00:16:50;18.90;;;10.93;;
82292;SDS011;71892;14.836;105.234;2024-03-22T00:19:16;21.40;;;11.45;;
82292;SDS011;71892;14.836;105.234;2024-03-22T00:21:43;23.77;;;11.40;;
82292;SDS011;71892;14.836;105.234;2024-03-22T00:24:09;23.30;;;11.00;;
82292;SDS011;71892;14.836;105.234;2024-03-22T00:26:36;18.33;;;11.48;;
82292;SDS011;71892;14.836;105.234;2024-03-22T00:29:02;28.80;;;11.68;;
82292;SDS011;71892;14.836;105.234;2024-03-22T00:31:29;20.33;;;11.43;;
82292;SDS011;71892;14.836;105.234;2024-03-22T00:33:55;21.17;;;11.85;;
82292;SDS011;71892;14.836;105.234;2024-03-22T00:36:22;21.02;;;11.05;;
82292;SDS011;71892;14.836;105.234;2024-03-22T00:38:49;22.27;;;10.88;;
82292;SDS011;71892;14.836;105.234;2024-03-22T00:41:15;21.85;;;11.25;;
82292;SDS011;71892;14.836;105.234;2024-03-22T00:43:43;22.55;;;11.82;;
82292;SDS011;71892;14.836;105.234;2024-03-22T00:46:09;23.08;;;11.65;;
82292;SDS011;71892;14.836;105.234;2024-03-22T00:48:39;20.27;;;11.35;;
82292;SDS011;71892;14.836;105.234;2024-03-22T00:51:05;22.10;;;10.70;;
82292;SDS011;71892;14.836;105.234;2024-03-22T00:53:32;16.00;;;10.13;;
82292;SDS011;71892;14.836;105.234;2024-03-22T00:55:59;17.75;;;10.68;;
82292;SDS011;71892;14.836;105.234;2024-03-22T00:58:28;16.30;;;9.35;;
82292;SDS011;71892;14.836;105.234;2024-03-22T01:00:55;17.98;;;10.13;;
82292;SDS011;71892;14.836;105.234;2024-03-22T01:03:22;24.58;;;9.38;;
82292;SDS011;71892;14.836;105.234;2024-03-22T01:05:48;24.63;;;10.55;;
82292;SDS011;71892;14.836;105.234;2024-03-22T01:08:15;37.15;;;10.45;;
82292;SDS011;71892;14.836;105.234;2024-03-22T01:10:42;15.93;;;8.32;;
82292;SDS011;71892;14.836;105.234;2024-03-22T01:13:08;23.35;;;9.40;;
82292;SDS011;71892;14.836;105.234;2024-03-22T01:15:35;19.17;;;8.02;;
82292;SDS011;71892;14.836;105.234;2024-03-22T01:18:01;27.13;;;8.60;;
82292;SDS011;71892;14.836;105.234;2024-03-22T01:20:28;21.65;;;8.55;;
82292;SDS011;71892;14.836;105.234;2024-03-22T01:22:58;25.88;;;7.93;;
82292;SDS011;71892;14.836;105.234;2024-03-22T01:25:27;25.02;;;7.00;;
82292;SDS011;71892;14.836;105.234;2024-03-22T01:27:55;19.40;;;7.18;;
82292;SDS011;71892;14.836;105.234;2024-03-22T01:30:22;15.88;;;6.78;;
82292;SDS011;71892;14.836;105.234;2024-03-22T01:32:48;21.33;;;6.03;;
82292;SDS011;71892;14.836;105.234;2024-03-22T01:35:15;15.70;;;6.68;;
82292;SDS011;71892;14.836;105.234;2024-03-22T01:37:41;17.83;;;6.90;;
82292;SDS011;71892;14.836;105.234;2024-03-22T01:40:08;16.90;;;6.57;;
82292;SDS011;71892;14.836;105.234;2024-03-22T01:42:35;14.40;;;6.15;;
82292;SDS011;71892;14.836;105.234;2024-03-22T01:45:01;19.23;;;7.85;;
82292;SDS011;71892;14.836;105.234;2024-03-22T01:47:28;14.43;;;6.05;;
82292;SDS011;71892;14.836;105.234;2024-03-22T01:49:55;13.73;;;5.40;;
82292;SDS011;71892;14.836;105.234;2024-03-22T01:52:22;18.15;;;4.97;;
82292;SDS011;71892;14.836;105.234;2024-03-22T01:54:49;21.10;;;5.95;;
82292;SDS011;71892;14.836;105.234;2024-03-22T01:57:16;15.23;;;6.25;;
82292;SDS011;71892;14.836;105.234;2024-03-22T01:59:42;15.73;;;5.50;;
82292;SDS011;71892;14.836;105.234;2024-03-22T02:02:09;12.30;;;4.97;;
82292;SDS011;71892;14.836;105.234;2024-03-22T02:04:36;14.60;;;5.30;;
82292;SDS011;71892;14.836;105.234;2024-03-22T02:07:03;15.95;;;5.95;;
82292;SDS011;71892;14.836;105.234;2024-03-22T02:09:29;14.98;;;6.07;;
82292;SDS011;71892;14.836;105.234;2024-03-22T02:11:56;10.40;;;5.28;;
82292;SDS011;71892;14.836;105.234;2024-03-22T02:14:22;10.15;;;5.35;;
82292;SDS011;71892;14.836;105.234;2024-03-22T02:16:50;12.13;;;5.38;;
82292;SDS011;71892;14.836;105.234;2024-03-22T02:19:17;14.82;;;6.05;;
82292;SDS011;71892;14.836;105.234;2024-03-22T02:21:43;15.00;;;6.75;;
82292;SDS011;71892;14.836;105.234;2024-03-22T02:24:10;12.10;;;5.25;;
82292;SDS011;71892;14.836;105.234;2024-03-22T02:26:36;11.35;;;5.85;;
82292;SDS011;71892;14.836;105.234;2024-03-22T02:29:03;12.85;;;5.43;;
82292;SDS011;71892;14.836;105.234;2024-03-22T02:31:30;9.85;;;4.95;;
82292;SDS011;71892;14.836;105.234;2024-03-22T02:33:58;15.13;;;5.35;;
82292;SDS011;71892;14.836;105.234;2024-03-22T02:36:26;9.48;;;4.85;;
82292;SDS011;71892;14.836;105.234;2024-03-22T02:38:53;16.10;;;5.70;;
82292;SDS011;71892;14.836;105.234;2024-03-22T02:41:20;9.60;;;5.45;;
82292;SDS011;71892;14.836;105.234;2024-03-22T02:43:47;8.13;;;4.97;;
82292;SDS011;71892;14.836;105.234;2024-03-22T02:46:13;10.80;;;4.90;;
82292;SDS011;71892;14.836;105.234;2024-03-22T02:48:40;15.88;;;5.78;;
82292;SDS011;71892;14.836;105.234;2024-03-22T02:51:06;9.60;;;5.63;;
82292;SDS011;71892;14.836;105.234;2024-03-22T02:53:33;7.88;;;5.22;;
82292;SDS011;71892;14.836;105.234;2024-03-22T02:56:00;11.23;;;5.80;;
82292;SDS011;71892;14.836;105.234;2024-03-22T02:58:26;11.80;;;5.40;;
82292;SDS011;71892;14.836;105.234;2024-03-22T03:00:53;12.15;;;4.85;;
82292;SDS011;71892;14.836;105.234;2024-03-22T03:03:19;17.25;;;6.03;;
82292;SDS011;71892;14.836;105.234;2024-03-22T03:05:46;26.50;;;6.63;;
82292;SDS011;71892;14.836;105.234;2024-03-22T03:08:12;13.93;;;5.65;;
82292;SDS011;71892;14.836;105.234;2024-03-22T03:10:38;17.45;;;6.60;;
82292;SDS011;71892;14.836;105.234;2024-03-22T03:13:05;21.23;;;7.18;;
82292;SDS011;71892;14.836;105.234;2024-03-22T03:15:31;17.77;;;7.65;;
82292;SDS011;71892;14.836;105.234;2024-03-22T03:18:00;13.02;;;7.22;;
82292;SDS011;71892;14.836;105.234;2024-03-22T03:20:27;12.43;;;7.30;;
82292;SDS011;71892;14.836;105.234;2024-03-22T03:22:53;13.82;;;7.03;;
82292;SDS011;71892;14.836;105.234;2024-03-22T03:25:20;21.85;;;7.30;;
82292;SDS011;71892;14.836;105.234;2024-03-22T03:27:47;17.77;;;7.88;;
82292;SDS011;71892;14.836;105.234;2024-03-22T03:30:13;18.55;;;9.13;;
82292;SDS011;71892;14.836;105.234;2024-03-22T03:32:40;15.60;;;7.75;;
82292;SDS011;71892;14.836;105.234;2024-03-22T03:35:06;17.25;;;7.57;;
82292;SDS011;71892;14.836;105.234;2024-03-22T03:37:33;14.15;;;6.88;;
82292;SDS011;71892;14.836;105.234;2024-03-22T03:39:59;11.50;;;7.32;;
82292;SDS011;71892;14.836;105.234;2024-03-22T03:42:26;14.10;;;7.93;;
82292;SDS011;71892;14.836;105.234;2024-03-22T03:44:53;11.13;;;6.97;;
82292;SDS011;71892;14.836;105.234;2024-03-22T03:47:19;11.40;;;6.95;;
82292;SDS011;71892;14.836;105.234;2024-03-22T03:49:46;14.10;;;6.93;;
82292;SDS011;71892;14.836;105.234;2024-03-22T03:52:13;11.80;;;6.93;;
82292;SDS011;71892;14.836;105.234;2024-03-22T03:54:39;11.27;;;6.57;;
82292;SDS011;71892;14.836;105.234;2024-03-22T03:57:06;13.90;;;7.13;;
82292;SDS011;71892;14.836;105.234;2024-03-22T03:59:35;11.57;;;6.88;;
82292;SDS011;71892;14.836;105.234;2024-03-22T04:02:02;13.05;;;6.35;;
82292;SDS011;71892;14.836;105.234;2024-03-22T04:04:28;13.88;;;6.68;;
82292;SDS011;71892;14.836;105.234;2024-03-22T04:06:54;12.30;;;6.57;;
82292;SDS011;71892;14.836;105.234;2024-03-22T04:09:21;12.45;;;6.80;;
82292;SDS011;71892;14.836;105.234;2024-03-22T04:11:47;14.65;;;6.85;;
82292;SDS011;71892;14.836;105.234;2024-03-22T04:14:14;14.05;;;7.30;;
82292;SDS011;71892;14.836;105.234;2024-03-22T04:16:40;13.85;;;7.38;;
82292;SDS011;71892;14.836;105.234;2024-03-22T04:19:07;11.65;;;7.07;;
82292;SDS011;71892;14.836;105.234;2024-03-22T04:21:33;14.00;;;6.85;;
82292;SDS011;71892;14.836;105.234;2024-03-22T04:24:00;13.07;;;7.45;;
82292;SDS011;71892;14.836;105.234;2024-03-22T04:26:27;12.25;;;7.30;;
82292;SDS011;71892;14.836;105.234;2024-03-22T04:28:53;11.27;;;7.45;;
82292;SDS011;71892;14.836;105.234;2024-03-22T04:31:20;10.23;;;7.22;;
82292;SDS011;71892;14.836;105.234;2024-03-22T04:33:46;13.18;;;8.07;;
82292;SDS011;71892;14.836;105.234;2024-03-22T04:36:13;14.45;;;7.38;;
82292;SDS011;71892;14.836;105.234;2024-03-22T04:38:41;11.20;;;7.63;;
82292;SDS011;71892;14.836;105.234;2024-03-22T04:41:07;15.65;;;8.10;;
82292;SDS011;71892;14.836;105.234;2024-03-22T04:43:33;15.75;;;7.50;;
82292;SDS011;71892;14.836;105.234;2024-03-22T04:46:00;10.77;;;7.60;;
82292;SDS011;71892;14.836;105.234;2024-03-22T04:48:26;14.82;;;7.97;;
82292;SDS011;71892;14.836;105.234;2024-03-22T04:50:53;14.43;;;8.18;;
82292;SDS011;71892;14.836;105.234;2024-03-22T04:53:19;15.38;;;7.82;;
82292;SDS011;71892;14.836;105.234;2024-03-22T04:55:46;18.00;;;7.90;;
82292;SDS011;71892;14.836;105.234;2024-03-22T04:58:20;12.50;;;6.90;;
82292;SDS011;71892;14.836;105.234;2024-03-22T05:00:48;12.05;;;7.07;;
82292;SDS011;71892;14.836;105.234;2024-03-22T05:03:15;15.63;;;7.75;;
82292;SDS011;71892;14.836;105.234;2024-03-22T05:05:42;10.95;;;7.57;;
82292;SDS011;71892;14.836;105.234;2024-03-22T05:08:09;10.98;;;7.72;;
82292;SDS011;71892;14.836;105.234;2024-03-22T05:10:35;12.65;;;7.35;;
82292;SDS011;71892;14.836;105.234;2024-03-22T05:13:03;13.90;;;7.43;;
82292;SDS011;71892;14.836;105.234;2024-03-22T05:15:30;14.90;;;7.78;;
82292;SDS011;71892;14.836;105.234;2024-03-22T05:17:57;12.65;;;8.32;;
82292;SDS011;71892;14.836;105.234;2024-03-22T05:20:24;13.70;;;7.40;;
82292;SDS011;71892;14.836;105.234;2024-03-22T05:22:51;14.02;;;7.55;;
82292;SDS011;71892;14.836;105.234;2024-03-22T05:25:18;15.75;;;9.10;;
82292;SDS011;71892;14.836;105.234;2024-03-22T05:27:45;15.40;;;9.55;;
82292;SDS011;71892;14.836;105.234;2024-03-22T05:30:12;17.95;;;9.25;;
82292;SDS011;71892;14.836;105.234;2024-03-22T05:32:39;11.20;;;8.25;;
82292;SDS011;71892;14.836;105.234;2024-03-22T05:35:06;14.05;;;8.77;;
82292;SDS011;71892;14.836;105.234;2024-03-22T05:37:33;14.73;;;8.27;;
82292;SDS011;71892;14.836;105.234;2024-03-22T05:40:00;12.63;;;8.75;;
82292;SDS011;71892;14.836;105.234;2024-03-22T05:42:27;17.45;;;9.88;;
82292;SDS011;71892;14.836;105.234;2024-03-22T05:44:55;18.15;;;8.60;;
82292;SDS011;71892;14.836;105.234;2024-03-22T05:47:21;15.20;;;9.38;;
82292;SDS011;71892;14.836;105.234;2024-03-22T05:49:48;14.48;;;9.27;;
82292;SDS011;71892;14.836;105.234;2024-03-22T05:52:14;13.63;;;9.10;;
82292;SDS011;71892;14.836;105.234;2024-03-22T05:54:41;13.65;;;9.20;;
82292;SDS011;71892;14.836;105.234;2024-03-22T05:57:07;12.93;;;9.07;;
82292;SDS011;71892;14.836;105.234;2024-03-22T05:59:34;40.88;;;9.95;;
82292;SDS011;71892;14.836;105.234;2024-03-22T06:02:01;17.13;;;8.20;;
82292;SDS011;71892;14.836;105.234;2024-03-22T06:04:30;19.42;;;9.15;;
82292;SDS011;71892;14.836;105.234;2024-03-22T06:06:57;22.48;;;9.45;;
82292;SDS011;71892;14.836;105.234;2024-03-22T06:09:28;17.58;;;10.07;;
82292;SDS011;71892;14.836;105.234;2024-03-22T06:12:05;15.57;;;9.88;;
82292;SDS011;71892;14.836;105.234;2024-03-22T06:14:32;17.27;;;11.38;;
82292;SDS011;71892;14.836;105.234;2024-03-22T06:16:59;15.50;;;10.30;;
82292;SDS011;71892;14.836;105.234;2024-03-22T06:19:25;15.85;;;11.35;;
82292;SDS011;71892;14.836;105.234;2024-03-22T06:21:52;16.73;;;11.35;;
82292;SDS011;71892;14.836;105.234;2024-03-22T06:24:18;15.43;;;11.57;;
82292;SDS011;71892;14.836;105.234;2024-03-22T06:26:45;14.48;;;11.57;;
82292;SDS011;71892;14.836;105.234;2024-03-22T06:29:11;18.95;;;12.02;;
82292;SDS011;71892;14.836;105.234;2024-03-22T06:31:39;19.35;;;12.10;;
82292;SDS011;71892;14.836;105.234;2024-03-22T06:34:05;16.92;;;11.82;;
82292;SDS011;71892;14.836;105.234;2024-03-22T06:36:32;18.90;;;11.30;;
82292;SDS011;71892;14.836;105.234;2024-03-22T06:38:58;16.38;;;10.82;;
82292;SDS011;71892;14.836;105.234;2024-03-22T06:41:25;16.80;;;12.32;;
82292;SDS011;71892;14.836;105.234;2024-03-22T06:43:53;18.45;;;11.55;;
82292;SDS011;71892;14.836;105.234;2024-03-22T06:46:20;14.85;;;10.85;;
82292;SDS011;71892;14.836;105.234;2024-03-22T06:48:46;19.08;;;11.23;;
82292;SDS011;71892;14.836;105.234;2024-03-22T06:51:13;19.75;;;11.82;;
82292;SDS011;71892;14.836;105.234;2024-03-22T06:53:39;20.17;;;11.45;;
82292;SDS011;71892;14.836;105.234;2024-03-22T06:56:06;16.83;;;11.30;;
82292;SDS011;71892;14.836;105.234;2024-03-22T06:58:35;14.35;;;10.65;;
82292;SDS011;71892;14.836;105.234;2024-03-22T07:01:02;13.82;;;10.60;;
82292;SDS011;71892;14.836;105.234;2024-03-22T07:03:29;17.48;;;10.65;;
82292;SDS011;71892;14.836;105.234;2024-03-22T07:05:56;14.60;;;10.05;;
82292;SDS011;71892;14.836;105.234;2024-03-22T07:08:26;15.93;;;11.07;;
82292;SDS011;71892;14.836;105.234;2024-03-22T07:10:53;13.52;;;10.27;;
82292;SDS011;71892;14.836;105.234;2024-03-22T07:13:20;16.58;;;10.07;;
82292;SDS011;71892;14.836;105.234;2024-03-22T07:15:47;17.60;;;9.85;;
82292;SDS011;71892;14.836;105.234;2024-03-22T07:18:14;12.95;;;10.10;;
82292;SDS011;71892;14.836;105.234;2024-03-22T07:20:41;14.80;;;9.23;;
82292;SDS011;71892;14.836;105.234;2024-03-22T07:23:08;15.80;;;9.85;;
82292;SDS011;71892;14.836;105.234;2024-03-22T07:25:37;17.10;;;10.45;;
82292;SDS011;71892;14.836;105.234;2024-03-22T07:28:04;13.40;;;10.07;;
82292;SDS011;71892;14.836;105.234;2024-03-22T07:30:31;13.23;;;10.43;;
82292;SDS011;71892;14.836;105.234;2024-03-22T07:32:57;15.35;;;9.75;;
82292;SDS011;71892;14.836;105.234;2024-03-22T07:35:24;13.40;;;9.02;;
82292;SDS011;71892;14.836;105.234;2024-03-22T07:37:50;15.43;;;9.38;;
82292;SDS011;71892;14.836;105.234;2024-03-22T07:40:17;20.77;;;10.82;;
82292;SDS011;71892;14.836;105.234;2024-03-22T07:42:43;11.68;;;8.90;;
82292;SDS011;71892;14.836;105.234;2024-03-22T07:45:10;15.00;;;9.07;;
82292;SDS011;71892;14.836;105.234;2024-03-22T07:47:36;16.00;;;10.27;;
82292;SDS011;71892;14.836;105.234;2024-03-22T07:50:04;14.93;;;9.35;;
82292;SDS011;71892;14.836;105.234;2024-03-22T07:52:31;16.38;;;9.52;;
82292;SDS011;71892;14.836;105.234;2024-03-22T07:54:57;15.98;;;9.65;;
82292;SDS011;71892;14.836;105.234;2024-03-22T07:57:23;21.52;;;9.15;;
82292;SDS011;71892;14.836;105.234;2024-03-22T07:59:49;13.48;;;9.18;;
82292;SDS011;71892;14.836;105.234;2024-03-22T08:02:16;15.40;;;10.43;;
82292;SDS011;71892;14.836;105.234;2024-03-22T08:04:43;15.02;;;10.38;;
82292;SDS011;71892;14.836;105.234;2024-03-22T08:07:09;14.40;;;9.93;;
82292;SDS011;71892;14.836;105.234;2024-03-22T08:09:35;16.63;;;9.23;;
82292;SDS011;71892;14.836;105.234;2024-03-22T08:12:02;13.27;;;9.52;;
82292;SDS011;71892;14.836;105.234;2024-03-22T08:14:29;14.93;;;9.23;;
82292;SDS011;71892;14.836;105.234;2024-03-22T08:16:55;15.45;;;9.85;;
82292;SDS011;71892;14.836;105.234;2024-03-22T08:19:22;13.93;;;10.00;;
82292;SDS011;71892;14.836;105.234;2024-03-22T08:21:48;14.43;;;10.52;;
82292;SDS011;71892;14.836;105.234;2024-03-22T08:24:15;15.23;;;9.80;;
82292;SDS011;71892;14.836;105.234;2024-03-22T08:26:42;15.20;;;10.63;;
82292;SDS011;71892;14.836;105.234;2024-03-22T08:29:12;15.68;;;10.20;;
82292;SDS011;71892;14.836;105.234;2024-03-22T08:31:40;17.80;;;10.68;;
82292;SDS011;71892;14.836;105.234;2024-03-22T08:34:07;13.75;;;10.18;;
82292;SDS011;71892;14.836;105.234;2024-03-22T08:36:33;15.02;;;9.88;;
82292;SDS011;71892;14.836;105.234;2024-03-22T08:39:00;14.38;;;10.43;;
82292;SDS011;71892;14.836;105.234;2024-03-22T08:41:27;16.27;;;11.20;;
82292;SDS011;71892;14.836;105.234;2024-03-22T08:43:53;18.48;;;11.45;;
82292;SDS011;71892;14.836;105.234;2024-03-22T08:46:20;14.23;;;10.55;;
82292;SDS011;71892;14.836;105.234;2024-03-22T08:48:48;13.73;;;10.40;;
82292;SDS011;71892;14.836;105.234;2024-03-22T08:51:15;19.40;;;11.68;;
82292;SDS011;71892;14.836;105.234;2024-03-22T08:53:41;14.77;;;11.38;;
82292;SDS011;71892;14.836;105.234;2024-03-22T08:56:08;13.93;;;10.35;;
82292;SDS011;71892;14.836;105.234;2024-03-22T08:58:34;15.27;;;10.30;;
82292;SDS011;71892;14.836;105.234;2024-03-22T09:01:01;17.65;;;11.43;;
82292;SDS011;71892;14.836;105.234;2024-03-22T09:03:27;19.05;;;11.52;;
82292;SDS011;71892;14.836;105.234;2024-03-22T09:05:56;22.00;;;11.98;;
82292;SDS011;71892;14.836;105.234;2024-03-22T09:08:22;17.40;;;11.50;;
82292;SDS011;71892;14.836;105.234;2024-03-22T09:10:54;15.98;;;11.50;;
82292;SDS011;71892;14.836;105.234;2024-03-22T09:13:21;13.73;;;11.57;;
82292;SDS011;71892;14.836;105.234;2024-03-22T09:15:47;18.13;;;11.35;;
82292;SDS011;71892;14.836;105.234;2024-03-22T09:18:14;21.52;;;12.88;;
82292;SDS011;71892;14.836;105.234;2024-03-22T09:20:41;15.45;;;11.90;;
82292;SDS011;71892;14.836;105.234;2024-03-22T09:23:08;16.88;;;11.75;;
82292;SDS011;71892;14.836;105.234;2024-03-22T09:25:34;17.35;;;12.10;;
82292;SDS011;71892;14.836;105.234;2024-03-22T09:28:00;13.90;;;11.30;;
82292;SDS011;71892;14.836;105.234;2024-03-22T09:30:27;13.75;;;11.40;;
82292;SDS011;71892;14.836;105.234;2024-03-22T09:32:54;21.77;;;11.73;;
82292;SDS011;71892;14.836;105.234;2024-03-22T09:35:20;16.02;;;11.35;;
82292;SDS011;71892;14.836;105.234;2024-03-22T09:37:47;16.10;;;10.68;;
82292;SDS011;71892;14.836;105.234;2024-03-22T09:40:13;16.48;;;11.75;;
82292;SDS011;71892;14.836;105.234;2024-03-22T09:42:41;14.18;;;11.52;;
82292;SDS011;71892;14.836;105.234;2024-03-22T09:45:08;17.33;;;11.68;;
82292;SDS011;71892;14.836;105.234;2024-03-22T09:50:06;14.05;;;10.90;;
82292;SDS011;71892;14.836;105.234;2024-03-22T09:52:34;21.08;;;10.88;;
82292;SDS011;71892;14.836;105.234;2024-03-22T09:55:04;21.70;;;11.38;;
82292;SDS011;71892;14.836;105.234;2024-03-22T09:57:37;18.05;;;10.65;;
82292;SDS011;71892;14.836;105.234;2024-03-22T10:00:06;17.10;;;12.20;;
82292;SDS011;71892;14.836;105.234;2024-03-22T10:02:34;16.95;;;12.02;;
82292;SDS011;71892;14.836;105.234;2024-03-22T10:05:00;16.38;;;11.52;;
82292;SDS011;71892;14.836;105.234;2024-03-22T10:07:29;22.75;;;11.02;;
82292;SDS011;71892;14.836;105.234;2024-03-22T10:10:00;17.00;;;11.32;;
82292;SDS011;71892;14.836;105.234;2024-03-22T10:12:26;16.05;;;11.20;;
82292;SDS011;71892;14.836;105.234;2024-03-22T10:14:52;15.88;;;11.50;;
82292;SDS011;71892;14.836;105.234;2024-03-22T10:17:19;17.90;;;12.07;;
82292;SDS011;71892;14.836;105.234;2024-03-22T10:19:48;16.80;;;11.82;;
82292;SDS011;71892;14.836;105.234;2024-03-22T10:22:17;19.17;;;12.68;;
82292;SDS011;71892;14.836;105.234;2024-03-22T10:24:44;22.60;;;12.82;;
82292;SDS011;71892;14.836;105.234;2024-03-22T10:27:10;16.58;;;11.98;;
82292;SDS011;71892;14.836;105.234;2024-03-22T10:29:37;17.13;;;12.10;;
82292;SDS011;71892;14.836;105.234;2024-03-22T10:32:04;18.50;;;11.50;;
82292;SDS011;71892;14.836;105.234;2024-03-22T10:34:31;18.02;;;11.73;;
82292;SDS011;71892;14.836;105.234;2024-03-22T10:37:00;21.33;;;11.88;;
82292;SDS011;71892;14.836;105.234;2024-03-22T10:39:27;18.08;;;11.00;;
82292;SDS011;71892;14.836;105.234;2024-03-22T10:41:54;23.92;;;13.02;;
82292;SDS011;71892;14.836;105.234;2024-03-22T10:44:20;20.58;;;11.95;;
82292;SDS011;71892;14.836;105.234;2024-03-22T10:46:47;20.50;;;11.80;;
82292;SDS011;71892;14.836;105.234;2024-03-22T10:49:17;17.75;;;11.32;;
82292;SDS011;71892;14.836;105.234;2024-03-22T10:51:55;17.02;;;11.00;;
82292;SDS011;71892;14.836;105.234;2024-03-22T10:54:32;17.75;;;11.20;;
82292;SDS011;71892;14.836;105.234;2024-03-22T10:59:33;15.82;;;10.95;;
82292;SDS011;71892;14.836;105.234;2024-03-22T11:02:03;16.48;;;11.88;;
82292;SDS011;71892;14.836;105.234;2024-03-22T11:04:32;15.63;;;11.93;;
82292;SDS011;71892;14.836;105.234;2024-03-22T11:07:00;23.27;;;13.07;;
82292;SDS011;71892;14.836;105.234;2024-03-22T11:09:28;22.58;;;14.00;;
82292;SDS011;71892;14.836;105.234;2024-03-22T11:11:55;25.55;;;14.90;;
82292;SDS011;71892;14.836;105.234;2024-03-22T11:14:23;27.63;;;14.75;;
82292;SDS011;71892;14.836;105.234;2024-03-22T11:16:50;23.92;;;13.40;;
82292;SDS011;71892;14.836;105.234;2024-03-22T11:19:16;23.85;;;14.85;;
82292;SDS011;71892;14.836;105.234;2024-03-22T11:21:46;19.00;;;12.00;;
82292;SDS011;71892;14.836;105.234;2024-03-22T11:24:12;19.20;;;12.27;;
82292;SDS011;71892;14.836;105.234;2024-03-22T11:26:39;19.80;;;14.00;;
82292;SDS011;71892;14.836;105.234;2024-03-22T11:29:05;20.77;;;13.23;;
82292;SDS011;71892;14.836;105.234;2024-03-22T11:31:33;17.08;;;11.93;;
82292;SDS011;71892;14.836;105.234;2024-03-22T11:34:00;22.33;;;12.23;;
82292;SDS011;71892;14.836;105.234;2024-03-22T11:36:28;21.00;;;12.07;;
82292;SDS011;71892;14.836;105.234;2024-03-22T11:38:55;18.60;;;12.38;;
82292;SDS011;71892;14.836;105.234;2024-03-22T11:41:27;22.27;;;12.60;;
82292;SDS011;71892;14.836;105.234;2024-03-22T11:43:55;15.63;;;12.45;;
82292;SDS011;71892;14.836;105.234;2024-03-22T11:48:51;23.55;;;16.17;;
82292;SDS011;71892;14.836;105.234;2024-03-22T11:51:19;20.40;;;14.80;;
82292;SDS011;71892;14.836;105.234;2024-03-22T11:53:50;26.02;;;16.05;;
82292;SDS011;71892;14.836;105.234;2024-03-22T11:56:19;28.65;;;18.98;;
82292;SDS011;71892;14.836;105.234;2024-03-22T11:58:47;31.50;;;17.83;;
82292;SDS011;71892;14.836;105.234;2024-03-22T12:01:16;26.33;;;16.60;;
82292;SDS011;71892;14.836;105.234;2024-03-22T12:03:46;26.88;;;16.65;;
82292;SDS011;71892;14.836;105.234;2024-03-22T12:06:13;24.92;;;16.95;;
82292;SDS011;71892;14.836;105.234;2024-03-22T12:08:41;29.00;;;15.65;;
82292;SDS011;71892;14.836;105.234;2024-03-22T12:11:08;24.25;;;15.57;;
82292;SDS011;71892;14.836;105.234;2024-03-22T12:13:37;28.20;;;16.08;;
82292;SDS011;71892;14.836;105.234;2024-03-22T12:16:04;22.70;;;16.02;;
82292;SDS011;71892;14.836;105.234;2024-03-22T12:18:31;24.55;;;16.23;;
82292;SDS011;71892;14.836;105.234;2024-03-22T12:20:57;29.73;;;16.15;;
82292;SDS011;71892;14.836;105.234;2024-03-22T12:23:24;27.60;;;16.67;;
82292;SDS011;71892;14.836;105.234;2024-03-22T12:25:51;32.97;;;17.30;;
82292;SDS011;71892;14.836;105.234;2024-03-22T12:28:20;23.25;;;15.82;;
82292;SDS011;71892;14.836;105.234;2024-03-22T12:33:12;34.88;;;15.90;;
82292;SDS011;71892;14.836;105.234;2024-03-22T12:35:39;27.67;;;16.60;;
82292;SDS011;71892;14.836;105.234;2024-03-22T12:38:06;36.13;;;17.58;;
82292;SDS011;71892;14.836;105.234;2024-03-22T12:40:39;28.65;;;16.40;;
82292;SDS011;71892;14.836;105.234;2024-03-22T12:43:05;32.10;;;15.38;;
82292;SDS011;71892;14.836;105.234;2024-03-22T12:45:34;31.15;;;15.50;;
82292;SDS011;71892;14.836;105.234;2024-03-22T12:48:01;24.13;;;14.13;;
82292;SDS011;71892;14.836;105.234;2024-03-22T12:50:27;26.05;;;14.10;;
82292;SDS011;71892;14.836;105.234;2024-03-22T12:52:54;30.70;;;14.65;;
82292;SDS011;71892;14.836;105.234;2024-03-22T12:55:20;24.50;;;13.35;;
82292;SDS011;71892;14.836;105.234;2024-03-22T12:57:47;22.00;;;13.20;;
82292;SDS011;71892;14.836;105.234;2024-03-22T13:00:14;18.65;;;12.65;;
82292;SDS011;71892;14.836;105.234;2024-03-22T13:02:46;24.17;;;12.75;;
82292;SDS011;71892;14.836;105.234;2024-03-22T13:05:13;19.50;;;13.45;;
82292;SDS011;71892;14.836;105.234;2024-03-22T13:07:40;23.30;;;12.50;;
82292;SDS011;71892;14.836;105.234;2024-03-22T13:10:08;16.75;;;12.50;;
82292;SDS011;71892;14.836;105.234;2024-03-22T13:12:35;22.55;;;13.15;;
82292;SDS011;71892;14.836;105.234;2024-03-22T13:15:02;22.10;;;12.65;;
82292;SDS011;71892;14.836;105.234;2024-03-22T13:17:29;25.67;;;14.43;;
82292;SDS011;71892;14.836;105.234;2024-03-22T13:19:56;20.85;;;14.15;;
82292;SDS011;71892;14.836;105.234;2024-03-22T13:22:23;24.60;;;14.45;;
82292;SDS011;71892;14.836;105.234;2024-03-22T13:24:50;31.60;;;15.32;;
82292;SDS011;71892;14.836;105.234;2024-03-22T13:27:16;22.95;;;15.25;;
82292;SDS011;71892;14.836;105.234;2024-03-22T13:29:43;23.42;;;14.23;;
82292;SDS011;71892;14.836;105.234;2024-03-22T13:32:09;26.75;;;14.75;;
82292;SDS011;71892;14.836;105.234;2024-03-22T13:34:38;20.40;;;13.80;;
82292;SDS011;71892;14.836;105.234;2024-03-22T13:37:04;25.30;;;15.13;;
82292;SDS011;71892;14.836;105.234;2024-03-22T13:39:31;27.35;;;15.25;;
82292;SDS011;71892;14.836;105.234;2024-03-22T13:41:58;25.90;;;14.23;;
82292;SDS011;71892;14.836;105.234;2024-03-22T13:44:24;29.05;;;15.73;;
82292;SDS011;71892;14.836;105.234;2024-03-22T13:46:51;31.27;;;17.48;;
82292;SDS011;71892;14.836;105.234;2024-03-22T13:49:18;26.77;;;16.13;;
82292;SDS011;71892;14.836;105.234;2024-03-22T13:51:48;27.85;;;17.23;;
82292;SDS011;71892;14.836;105.234;2024-03-22T13:54:15;28.77;;;16.42;;
82292;SDS011;71892;14.836;105.234;2024-03-22T13:56:42;32.70;;;16.23;;
82292;SDS011;71892;14.836;105.234;2024-03-22T13:59:09;28.17;;;15.15;;
82292;SDS011;71892;14.836;105.234;2024-03-22T14:01:36;22.90;;;14.85;;
82292;SDS011;71892;14.836;105.234;2024-03-22T14:04:03;28.90;;;15.65;;
82292;SDS011;71892;14.836;105.234;2024-03-22T14:06:31;29.48;;;16.20;;
82292;SDS011;71892;14.836;105.234;2024-03-22T14:08:58;29.15;;;17.00;;
82292;SDS011;71892;14.836;105.234;2024-03-22T14:11:29;27.30;;;18.80;;